createdAt,value
2018-11-04T00:01:42.194Z,3.53
2018-11-04T00:04:13.000Z,3.58
2018-11-04T00:06:43.302Z,3.61
2018-11-04T00:09:14.583Z,3.52
2018-11-04T00:11:45.408Z,3.55
2018-11-04T00:14:15.844Z,3.59
2018-11-04T00:16:46.815Z,3.65
2018-11-04T00:19:17.007Z,3.69
2018-11-04T00:21:46.691Z,3.83
2018-11-04T00:24:16.562Z,3.89
2018-11-04T00:26:46.367Z,3.80
2018-11-04T00:29:16.103Z,3.69
2018-11-04T00:31:46.674Z,3.72
2018-11-04T00:34:17.193Z,3.68
2018-11-04T00:36:47.774Z,3.60
2018-11-04T00:39:18.398Z,3.54
2018-11-04T00:41:49.185Z,3.66
2018-11-04T00:44:20.576Z,3.62
2018-11-04T00:46:51.272Z,3.64
2018-11-04T00:49:21.813Z,3.55
2018-11-04T00:51:52.386Z,3.52
2018-11-04T00:54:22.872Z,3.51
2018-11-04T00:56:53.388Z,3.57
2018-11-04T00:59:23.767Z,3.68
2018-11-04T01:01:54.340Z,3.73
2018-11-04T01:04:24.723Z,3.71
2018-11-04T01:06:55.192Z,3.75
2018-11-04T01:09:25.578Z,3.61
2018-11-04T01:11:55.952Z,3.53
2018-11-04T01:14:26.622Z,3.52
2018-11-04T01:16:57.139Z,3.51
2018-11-04T01:19:27.459Z,3.41
2018-11-04T01:21:57.999Z,3.47
2018-11-04T01:24:28.493Z,3.62
2018-11-04T01:26:58.939Z,3.71
2018-11-04T01:29:29.447Z,3.67
2018-11-04T01:31:59.806Z,3.69
2018-11-04T01:34:30.181Z,3.72
2018-11-04T01:37:00.670Z,3.72
2018-11-04T01:39:31.076Z,3.72
2018-11-04T01:42:01.414Z,3.64
2018-11-04T01:44:31.732Z,3.69
2018-11-04T01:47:02.183Z,3.73
2018-11-04T01:49:32.881Z,3.73
2018-11-04T01:52:03.128Z,3.79
2018-11-04T01:54:33.407Z,3.72
2018-11-04T01:57:05.021Z,3.63
2018-11-04T01:59:35.915Z,3.52
2018-11-04T02:02:06.539Z,3.43
2018-11-04T02:04:36.786Z,3.41
2018-11-04T02:07:07.481Z,3.38
2018-11-04T02:09:37.835Z,3.33
2018-11-04T02:12:08.742Z,3.31
2018-11-04T02:14:39.239Z,3.31
2018-11-04T02:17:09.709Z,3.27
2018-11-04T02:19:40.205Z,3.25
2018-11-04T02:22:10.587Z,3.24
2018-11-04T02:24:41.032Z,3.35
2018-11-04T02:27:11.452Z,3.45
2018-11-04T02:29:41.695Z,3.48
2018-11-04T02:32:12.192Z,3.50
2018-11-04T02:34:42.735Z,3.43
2018-11-04T02:37:13.066Z,3.42
2018-11-04T02:39:43.663Z,3.43
2018-11-04T02:42:14.121Z,3.43
2018-11-04T02:44:44.479Z,3.53
2018-11-04T02:47:14.859Z,3.65
2018-11-04T02:49:45.160Z,3.77
2018-11-04T02:52:15.468Z,3.81
2018-11-04T02:54:45.796Z,3.89
2018-11-04T02:57:16.315Z,3.96
2018-11-04T02:59:46.788Z,3.97
2018-11-04T03:02:17.166Z,4.02
2018-11-04T03:04:47.516Z,4.06
2018-11-04T03:07:17.987Z,4.08
2018-11-04T03:09:48.396Z,4.22
2018-11-04T03:12:18.847Z,4.18
2018-11-04T03:14:49.066Z,4.29
2018-11-04T03:17:19.505Z,4.44
2018-11-04T03:19:49.935Z,4.40
2018-11-04T03:22:20.278Z,4.51
2018-11-04T03:24:50.678Z,4.49
2018-11-04T03:27:21.176Z,4.37
2018-11-04T03:29:51.548Z,4.40
2018-11-04T03:32:22.023Z,4.32
2018-11-04T03:34:52.313Z,4.34
2018-11-04T03:37:22.887Z,4.34
2018-11-04T03:39:53.497Z,4.39
2018-11-04T03:42:23.821Z,4.47
2018-11-04T03:44:54.336Z,4.58
2018-11-04T03:47:24.727Z,4.60
2018-11-04T03:49:55.055Z,4.62
2018-11-04T03:52:25.555Z,4.59
2018-11-04T03:54:55.857Z,4.60
2018-11-04T03:57:26.856Z,4.61
2018-11-04T03:59:57.232Z,4.65
2018-11-04T04:02:27.741Z,4.65
2018-11-04T04:04:58.308Z,4.66
2018-11-04T04:07:28.764Z,4.70
2018-11-04T04:09:59.525Z,4.75
2018-11-04T04:12:29.833Z,4.80
2018-11-04T04:15:00.097Z,4.88
2018-11-04T04:17:30.472Z,4.94
2018-11-04T04:20:00.994Z,4.91
2018-11-04T04:22:31.452Z,4.90
2018-11-04T04:25:01.816Z,4.87
2018-11-04T04:27:32.299Z,5.08
2018-11-04T04:30:02.846Z,5.07
2018-11-04T04:32:33.158Z,5.03
2018-11-04T04:35:03.458Z,5.01
2018-11-04T04:37:33.930Z,5.01
2018-11-04T04:40:04.441Z,5.03
2018-11-04T04:42:34.895Z,5.07
2018-11-04T04:45:05.626Z,5.06
2018-11-04T04:47:36.124Z,5.07
2018-11-04T04:50:06.682Z,5.07
2018-11-04T04:52:37.132Z,5.16
2018-11-04T04:55:07.892Z,5.22
2018-11-04T04:57:38.476Z,5.26
2018-11-04T05:00:09.455Z,5.30
2018-11-04T05:02:39.890Z,5.29
2018-11-04T05:05:10.374Z,5.41
2018-11-04T05:07:40.860Z,5.43
2018-11-04T05:10:11.215Z,5.40
2018-11-04T05:12:41.686Z,5.36
2018-11-04T05:15:11.977Z,5.39
2018-11-04T05:17:42.363Z,5.40
2018-11-04T05:20:12.731Z,5.35
2018-11-04T05:22:43.196Z,5.33
2018-11-04T05:25:13.792Z,5.40
2018-11-04T05:27:44.374Z,5.51
2018-11-04T05:30:14.878Z,5.48
2018-11-04T05:32:45.167Z,5.62
2018-11-04T05:35:15.608Z,5.79
2018-11-04T05:37:46.175Z,5.70
2018-11-04T05:40:16.516Z,5.48
2018-11-04T05:42:47.468Z,5.39
2018-11-04T05:45:17.772Z,5.51
2018-11-04T05:47:48.035Z,5.30
2018-11-04T05:50:18.498Z,5.36
2018-11-04T05:52:48.921Z,5.32
2018-11-04T05:55:19.347Z,5.37
2018-11-04T05:57:49.724Z,5.33
2018-11-04T06:00:20.145Z,5.33
2018-11-04T06:02:53.375Z,5.42
2018-11-04T06:05:23.905Z,5.48
2018-11-04T06:07:54.088Z,5.58
2018-11-04T06:10:24.501Z,5.70
2018-11-04T06:12:54.959Z,5.62
2018-11-04T06:15:25.503Z,5.71
2018-11-04T06:17:55.868Z,5.73
2018-11-04T06:20:26.283Z,5.71
2018-11-04T06:22:56.605Z,5.86
2018-11-04T06:25:27.118Z,5.89
2018-11-04T06:27:57.705Z,5.92
2018-11-04T06:30:28.188Z,5.85
2018-11-04T06:32:58.543Z,5.69
2018-11-04T06:35:28.933Z,5.67
2018-11-04T06:37:59.383Z,5.57
2018-11-04T06:40:29.699Z,5.58
2018-11-04T06:43:00.975Z,5.63
2018-11-04T06:45:31.451Z,5.67
2018-11-04T06:48:02.063Z,5.74
2018-11-04T06:50:32.543Z,5.80
2018-11-04T06:53:02.915Z,5.88
2018-11-04T06:55:33.279Z,5.91
2018-11-04T06:58:03.747Z,5.93
2018-11-04T07:00:34.280Z,5.89
2018-11-04T07:03:04.851Z,5.94
2018-11-04T07:05:35.208Z,6.13
2018-11-04T07:08:05.799Z,6.15
2018-11-04T07:10:36.180Z,6.10
2018-11-04T07:13:06.764Z,6.04
2018-11-04T07:15:37.159Z,6.08
2018-11-04T07:18:07.620Z,6.25
2018-11-04T07:20:37.895Z,6.26
2018-11-04T07:23:08.492Z,6.37
2018-11-04T07:25:39.673Z,6.43
2018-11-04T07:28:10.175Z,6.51
2018-11-04T07:30:40.643Z,6.60
2018-11-04T07:33:11.040Z,6.66
2018-11-04T07:35:41.527Z,6.63
2018-11-04T07:38:11.744Z,6.61
2018-11-04T07:40:42.075Z,6.72
2018-11-04T07:43:12.453Z,6.72
2018-11-04T07:45:42.708Z,6.69
2018-11-04T07:48:13.181Z,6.86
2018-11-04T07:50:43.653Z,6.82
2018-11-04T07:53:14.127Z,6.86
2018-11-04T07:55:44.540Z,6.86
2018-11-04T07:58:15.026Z,6.92
2018-11-04T08:00:45.509Z,6.98
2018-11-04T08:03:15.817Z,7.01
2018-11-04T08:05:46.153Z,6.98
2018-11-04T08:08:16.684Z,7.04
2018-11-04T08:10:47.056Z,7.22
2018-11-04T08:13:17.433Z,7.29
2018-11-04T08:15:47.917Z,7.29
2018-11-04T08:18:18.268Z,7.43
2018-11-04T08:20:48.553Z,7.62
2018-11-04T08:23:19.048Z,7.66
2018-11-04T08:25:49.320Z,7.63
2018-11-04T08:28:19.778Z,7.77
2018-11-04T08:30:50.056Z,8.02
2018-11-04T08:33:20.956Z,8.21
2018-11-04T08:35:51.361Z,8.42
2018-11-04T08:38:21.708Z,8.31
2018-11-04T08:40:52.013Z,8.24
2018-11-04T08:43:22.479Z,8.30
2018-11-04T08:45:52.926Z,8.32
2018-11-04T08:48:23.211Z,8.30
2018-11-04T08:50:53.616Z,8.64
2018-11-04T08:53:24.087Z,8.93
2018-11-04T08:55:54.503Z,9.13
2018-11-04T08:58:25.067Z,8.89
2018-11-04T09:00:56.437Z,8.86
2018-11-04T09:03:26.842Z,8.72
2018-11-04T09:05:57.243Z,8.90
2018-11-04T09:08:27.605Z,8.80
2018-11-04T09:10:57.997Z,8.74
2018-11-04T09:13:28.474Z,8.95
2018-11-04T09:15:58.965Z,9.27
2018-11-04T09:18:29.332Z,9.24
2018-11-04T09:20:59.699Z,9.29
2018-11-04T09:23:30.266Z,9.09
2018-11-04T09:26:00.601Z,9.52
2018-11-04T09:28:30.938Z,9.44
2018-11-04T09:31:01.435Z,9.31
2018-11-04T09:33:31.798Z,9.45
2018-11-04T09:36:02.298Z,9.61
2018-11-04T09:38:32.777Z,9.92
2018-11-04T09:41:03.557Z,10.43
2018-11-04T09:43:33.832Z,10.37
2018-11-04T09:46:04.216Z,10.24
2018-11-04T09:48:34.984Z,10.38
2018-11-04T09:51:05.607Z,10.20
2018-11-04T09:53:35.991Z,10.12
2018-11-04T09:56:06.685Z,10.24
2018-11-04T09:58:37.081Z,10.10
2018-11-04T10:01:07.661Z,10.33
2018-11-04T10:03:37.996Z,10.41
2018-11-04T10:06:08.259Z,10.38
2018-11-04T10:08:38.840Z,10.24
2018-11-04T10:11:09.265Z,10.36
2018-11-04T10:13:40.290Z,10.56
2018-11-04T10:16:10.831Z,10.54
2018-11-04T10:18:41.447Z,10.71
2018-11-04T10:21:12.634Z,10.76
2018-11-04T10:23:42.704Z,10.95
2018-11-04T10:26:13.360Z,10.89
2018-11-04T10:28:43.933Z,10.66
2018-11-04T10:31:14.348Z,10.79
2018-11-04T10:36:14.113Z,10.93
2018-11-04T10:38:44.757Z,11.05
2018-11-04T10:41:15.252Z,11.42
2018-11-04T10:43:45.475Z,11.01
2018-11-04T10:46:16.041Z,11.11
2018-11-04T10:48:46.396Z,11.20
2018-11-04T10:51:16.885Z,11.35
2018-11-04T10:53:47.114Z,11.31
2018-11-04T10:56:17.521Z,11.35
2018-11-04T10:58:48.072Z,11.41
2018-11-04T11:01:18.480Z,11.46
2018-11-04T11:03:48.771Z,11.64
2018-11-04T11:06:19.130Z,11.71
2018-11-04T11:08:49.732Z,11.93
2018-11-04T11:11:20.203Z,11.78
2018-11-04T11:13:50.683Z,11.70
2018-11-04T11:16:21.181Z,11.91
2018-11-04T11:18:51.544Z,12.10
2018-11-04T11:21:21.931Z,12.25
2018-11-04T11:23:52.413Z,12.10
2018-11-04T11:26:22.775Z,12.03
2018-11-04T11:28:53.160Z,11.94
2018-11-04T11:31:23.751Z,12.13
2018-11-04T11:33:54.536Z,12.10
2018-11-04T11:36:25.037Z,12.49
2018-11-04T11:38:55.501Z,12.41
2018-11-04T11:41:25.856Z,12.32
2018-11-04T11:43:56.367Z,12.47
2018-11-04T11:46:27.005Z,12.27
2018-11-04T11:48:57.597Z,12.38
2018-11-04T11:51:28.082Z,12.31
2018-11-04T11:53:58.507Z,12.20
2018-11-04T11:56:28.880Z,12.14
2018-11-04T11:58:59.441Z,12.27
2018-11-04T12:01:29.824Z,12.13
2018-11-04T12:04:00.252Z,11.95
2018-11-04T12:06:30.712Z,11.85
2018-11-04T12:09:01.084Z,11.87
2018-11-04T12:11:31.481Z,11.91
2018-11-04T12:14:01.823Z,11.90
2018-11-04T12:16:32.232Z,11.77
2018-11-04T12:19:02.723Z,11.85
2018-11-04T12:21:33.195Z,11.75
2018-11-04T12:24:03.668Z,11.66
2018-11-04T12:26:34.144Z,11.77
2018-11-04T12:29:04.629Z,11.83
2018-11-04T12:31:35.013Z,11.90
2018-11-04T12:34:05.704Z,11.83
2018-11-04T12:36:36.272Z,11.75
2018-11-04T12:39:09.072Z,11.78
2018-11-04T12:41:39.623Z,11.75
2018-11-04T12:44:10.228Z,11.72
2018-11-04T12:46:40.563Z,11.62
2018-11-04T12:49:10.874Z,11.78
2018-11-04T12:51:45.111Z,11.77
2018-11-04T12:54:15.674Z,11.61
2018-11-04T12:56:46.166Z,11.57
2018-11-04T12:59:16.844Z,11.56
2018-11-04T13:01:47.284Z,11.62
2018-11-04T13:04:17.733Z,11.62
2018-11-04T13:06:48.154Z,11.45
2018-11-04T13:09:18.659Z,11.46
2018-11-04T13:11:49.097Z,11.41
2018-11-04T13:14:19.532Z,11.51
2018-11-04T13:16:49.940Z,11.48
2018-11-04T13:19:20.415Z,11.49
2018-11-04T13:21:51.932Z,11.46
2018-11-04T13:24:22.516Z,11.40
2018-11-04T13:26:53.026Z,11.29
2018-11-04T13:29:23.435Z,11.36
2018-11-04T13:31:53.724Z,11.32
2018-11-04T13:34:24.464Z,11.42
2018-11-04T13:36:55.028Z,11.34
2018-11-04T13:39:25.410Z,11.34
2018-11-04T13:41:55.964Z,11.27
2018-11-04T13:44:26.344Z,11.30
2018-11-04T13:46:56.944Z,11.27
2018-11-04T13:49:27.293Z,11.25
2018-11-04T13:51:57.774Z,11.28
2018-11-04T13:54:28.300Z,11.23
2018-11-04T13:56:58.664Z,11.23
2018-11-04T13:59:29.217Z,11.27
2018-11-04T14:01:59.727Z,11.32
2018-11-04T14:04:30.836Z,11.17
2018-11-04T14:07:01.305Z,11.19
2018-11-04T14:09:31.555Z,11.24
2018-11-04T14:12:02.063Z,11.24
2018-11-04T14:14:32.631Z,11.24
2018-11-04T14:17:03.163Z,11.16
2018-11-04T14:19:34.271Z,11.17
2018-11-04T14:22:04.923Z,11.24
2018-11-04T14:24:35.512Z,11.15
2018-11-04T14:27:06.093Z,11.19
2018-11-04T14:29:36.318Z,11.18
2018-11-04T14:32:06.984Z,10.99
2018-11-04T14:34:37.327Z,10.81
2018-11-04T14:37:07.907Z,10.90
2018-11-04T14:39:38.258Z,10.80
2018-11-04T14:42:09.080Z,10.88
2018-11-04T14:44:39.459Z,10.83
2018-11-04T14:47:09.804Z,10.62
2018-11-04T14:49:40.312Z,10.82
2018-11-04T14:52:10.728Z,10.79
2018-11-04T14:54:41.052Z,10.71
2018-11-04T14:57:11.552Z,10.75
2018-11-04T14:59:42.129Z,10.81
2018-11-04T15:02:12.743Z,10.68
2018-11-04T15:04:43.228Z,10.69
2018-11-04T15:07:13.700Z,10.70
2018-11-04T15:09:44.169Z,10.77
2018-11-04T15:12:14.572Z,10.74
2018-11-04T15:14:45.211Z,10.67
2018-11-04T15:17:15.715Z,10.72
2018-11-04T15:19:46.196Z,10.63
2018-11-04T15:22:16.584Z,10.62
2018-11-04T15:24:47.066Z,10.62
2018-11-04T15:27:19.206Z,10.49
2018-11-04T15:29:49.774Z,10.56
2018-11-04T15:32:20.157Z,10.60
2018-11-04T15:34:50.661Z,10.32
2018-11-04T15:37:20.889Z,10.39
2018-11-04T15:39:51.424Z,10.34
2018-11-04T15:42:21.826Z,10.29
2018-11-04T15:44:52.137Z,10.23
2018-11-04T15:47:22.531Z,10.38
2018-11-04T15:49:52.992Z,10.43
2018-11-04T15:52:23.464Z,10.47
2018-11-04T15:54:53.921Z,10.51
2018-11-04T15:57:24.957Z,10.39
2018-11-04T15:59:55.359Z,10.41
2018-11-04T16:02:25.867Z,10.40
2018-11-04T16:04:56.319Z,10.51
2018-11-04T16:07:26.791Z,10.46
2018-11-04T16:09:57.164Z,10.41
2018-11-04T16:12:27.580Z,10.46
2018-11-04T16:14:57.956Z,10.27
2018-11-04T16:17:28.411Z,10.36
2018-11-04T16:19:59.277Z,10.49
2018-11-04T16:22:29.691Z,10.25
2018-11-04T16:25:00.058Z,10.31
2018-11-04T16:27:30.531Z,10.41
2018-11-04T16:30:00.939Z,10.40
2018-11-04T16:32:31.411Z,10.39
2018-11-04T16:35:01.773Z,10.41
2018-11-04T16:37:32.143Z,10.43
2018-11-04T16:40:02.554Z,10.37
2018-11-04T16:42:32.935Z,10.37
2018-11-04T16:45:04.199Z,10.33
2018-11-04T16:47:34.608Z,10.41
2018-11-04T16:50:05.805Z,10.39
2018-11-04T16:52:36.305Z,10.40
2018-11-04T16:55:07.643Z,10.31
2018-11-04T16:57:38.079Z,10.29
2018-11-04T17:00:09.961Z,10.25
2018-11-04T17:02:40.519Z,10.05
2018-11-04T17:05:11.920Z,10.13
2018-11-04T17:07:42.885Z,10.10
2018-11-04T17:10:13.427Z,10.07
2018-11-04T17:12:43.820Z,10.13
2018-11-04T17:15:15.160Z,10.12
2018-11-04T17:17:45.636Z,10.04
2018-11-04T17:20:18.594Z,9.96
2018-11-04T17:22:49.103Z,10.13
2018-11-04T17:25:19.577Z,10.10
2018-11-04T17:27:49.913Z,10.10
2018-11-04T17:30:20.570Z,10.15
2018-11-04T17:32:50.920Z,10.11
2018-11-04T17:35:21.288Z,10.08
2018-11-04T17:37:51.809Z,10.07
2018-11-04T17:40:22.171Z,10.05
2018-11-04T17:42:52.459Z,10.16
2018-11-04T17:45:23.347Z,10.06
2018-11-04T17:47:53.724Z,10.03
2018-11-04T17:50:24.164Z,10.03
2018-11-04T17:52:54.378Z,10.00
2018-11-04T17:55:24.844Z,9.95
2018-11-04T17:57:55.249Z,9.90
2018-11-04T18:00:25.737Z,9.97
2018-11-04T18:02:56.333Z,10.00
2018-11-04T18:05:27.577Z,9.92
2018-11-04T18:07:58.022Z,9.95
2018-11-04T18:10:28.385Z,9.92
2018-11-04T18:12:59.426Z,9.91
2018-11-04T18:15:30.067Z,10.05
2018-11-04T18:18:00.556Z,9.98
2018-11-04T18:20:31.179Z,10.11
2018-11-04T18:23:01.516Z,9.99
2018-11-04T18:25:31.870Z,10.09
2018-11-04T18:28:02.276Z,10.00
2018-11-04T18:30:32.775Z,10.01
2018-11-04T18:33:03.349Z,10.01
2018-11-04T18:35:33.712Z,10.00
2018-11-04T18:38:04.092Z,10.15
2018-11-04T18:40:34.671Z,10.08
2018-11-04T18:43:05.294Z,10.10
2018-11-04T18:45:35.538Z,10.24
2018-11-04T18:48:06.029Z,10.12
2018-11-04T18:50:36.694Z,10.11
2018-11-04T18:53:07.487Z,10.14
2018-11-04T18:55:37.866Z,10.24
2018-11-04T18:58:08.441Z,10.24
2018-11-04T19:00:38.952Z,10.27
2018-11-04T19:03:09.438Z,10.29
2018-11-04T19:05:39.949Z,10.33
2018-11-04T19:08:10.274Z,10.29
2018-11-04T19:10:40.847Z,10.31
2018-11-04T19:13:11.262Z,10.24
2018-11-04T19:15:43.110Z,10.26
2018-11-04T19:18:16.390Z,10.33
2018-11-04T19:20:46.994Z,10.35
2018-11-04T19:23:17.671Z,10.29
2018-11-04T19:25:48.158Z,10.31
2018-11-04T19:28:18.565Z,10.30
2018-11-04T19:30:49.118Z,10.31
2018-11-04T19:33:19.449Z,10.35
2018-11-04T19:35:49.991Z,10.34
2018-11-04T19:38:20.909Z,10.27
2018-11-04T19:40:51.441Z,10.39
2018-11-04T19:43:21.731Z,10.38
2018-11-04T19:45:52.346Z,10.32
2018-11-04T19:48:22.621Z,10.29
2018-11-04T19:50:53.367Z,10.19
2018-11-04T19:53:23.651Z,10.16
2018-11-04T19:55:54.145Z,10.23
2018-11-04T19:58:24.570Z,10.33
2018-11-04T20:00:55.215Z,10.21
2018-11-04T20:03:25.719Z,10.28
2018-11-04T20:05:56.282Z,10.22
2018-11-04T20:08:27.236Z,10.31
2018-11-04T20:10:57.698Z,10.19
2018-11-04T20:13:33.195Z,10.15
2018-11-04T20:16:03.619Z,10.14
2018-11-04T20:18:39.107Z,10.13
2018-11-04T20:21:09.540Z,10.15
2018-11-04T20:23:39.971Z,10.08
2018-11-04T20:26:11.396Z,10.19
2018-11-04T20:28:41.876Z,10.13
2018-11-04T20:31:17.527Z,10.18
2018-11-04T20:33:47.973Z,10.25
2018-11-04T20:36:18.841Z,10.21
2018-11-04T20:38:54.493Z,10.12
2018-11-04T20:41:29.718Z,10.18
2018-11-04T20:44:00.665Z,10.18
2018-11-04T20:46:31.095Z,10.08
2018-11-04T20:49:06.431Z,10.11
2018-11-04T20:51:36.933Z,10.14
2018-11-04T20:54:07.945Z,10.06
2018-11-04T20:56:43.204Z,9.96
2018-11-04T20:59:13.619Z,9.99
2018-11-04T21:01:44.205Z,10.05
2018-11-04T21:04:14.805Z,10.04
2018-11-04T21:06:45.326Z,10.08
2018-11-04T21:09:16.206Z,10.09
2018-11-04T21:11:46.800Z,10.00
2018-11-04T21:14:17.271Z,10.01
2018-11-04T21:16:47.905Z,10.04
2018-11-04T21:19:18.244Z,10.02
2018-11-04T21:21:48.900Z,10.04
2018-11-04T21:24:19.493Z,10.09
2018-11-04T21:26:49.897Z,10.06
2018-11-04T21:29:20.634Z,10.04
2018-11-04T21:31:50.948Z,10.13
2018-11-04T21:34:21.456Z,10.06
2018-11-04T21:36:52.877Z,10.07
2018-11-04T21:39:23.205Z,10.20
2018-11-04T21:41:53.704Z,10.14
2018-11-04T21:44:24.130Z,10.06
2018-11-04T21:46:54.507Z,10.01
2018-11-04T21:49:25.020Z,9.96
2018-11-04T21:51:55.409Z,10.01
2018-11-04T21:54:25.835Z,9.99
2018-11-04T21:56:56.503Z,9.93
2018-11-04T21:59:26.823Z,9.98
2018-11-04T22:01:57.391Z,9.91
2018-11-04T22:04:27.866Z,9.86
2018-11-04T22:06:58.399Z,9.87
2018-11-04T22:09:29.272Z,9.82
2018-11-04T22:11:59.863Z,9.83
2018-11-04T22:14:30.366Z,9.84
2018-11-04T22:17:02.935Z,9.83
2018-11-04T22:19:33.374Z,9.84
2018-11-04T22:22:03.735Z,9.82
2018-11-04T22:24:34.228Z,9.84
2018-11-04T22:27:04.608Z,9.86
2018-11-04T22:29:34.914Z,9.89
2018-11-04T22:32:05.251Z,9.88
2018-11-04T22:34:35.611Z,9.81
2018-11-04T22:37:06.239Z,9.94
2018-11-04T22:39:36.852Z,9.89
2018-11-04T22:42:07.441Z,9.98
2018-11-04T22:44:37.982Z,9.89
2018-11-04T22:47:08.256Z,9.92
2018-11-04T22:49:38.615Z,9.89
2018-11-04T22:52:09.097Z,9.91
2018-11-04T22:54:39.600Z,9.89
2018-11-04T22:57:09.974Z,9.89
2018-11-04T22:59:40.266Z,9.87
2018-11-04T23:02:10.699Z,9.97
2018-11-04T23:04:46.251Z,9.90
2018-11-04T23:07:16.597Z,9.86
2018-11-04T23:09:47.201Z,9.89
2018-11-04T23:12:17.892Z,9.84
2018-11-04T23:14:48.432Z,9.97
2018-11-04T23:17:18.815Z,9.91
2018-11-04T23:19:49.114Z,9.86
2018-11-04T23:22:19.618Z,9.87
2018-11-04T23:24:50.204Z,9.80
2018-11-04T23:27:20.705Z,9.82
2018-11-04T23:29:50.988Z,9.87
2018-11-04T23:32:21.528Z,9.90
2018-11-04T23:34:51.894Z,9.86
2018-11-04T23:37:22.412Z,9.91
2018-11-04T23:39:53.443Z,9.83
2018-11-04T23:42:23.831Z,9.80
2018-11-04T23:44:54.040Z,9.79
2018-11-04T23:47:24.599Z,9.77
2018-11-04T23:49:55.012Z,9.78
2018-11-04T23:52:25.497Z,9.77
2018-11-04T23:54:55.752Z,9.79
2018-11-04T23:57:26.173Z,9.78
2018-11-04T23:59:56.549Z,9.77
